createdAt,value
2023-03-24T00:00:02.704Z,10.37
2023-03-24T00:02:29.420Z,10.36
2023-03-24T00:04:56.188Z,10.35
2023-03-24T00:07:25.093Z,10.33
2023-03-24T00:09:51.782Z,10.31
2023-03-24T00:12:18.304Z,10.29
2023-03-24T00:14:45.204Z,10.27
2023-03-24T00:17:12.431Z,10.23
2023-03-24T00:19:39.162Z,10.21
2023-03-24T00:22:07.266Z,10.18
2023-03-24T00:24:34.418Z,10.14
2023-03-24T00:27:01.400Z,10.11
2023-03-24T00:29:27.913Z,10.09
2023-03-24T00:31:54.424Z,10.06
2023-03-24T00:34:21.049Z,10.04
2023-03-24T00:36:51.729Z,10.03
2023-03-24T00:39:19.951Z,10.01
2023-03-24T00:41:48.048Z,9.99
2023-03-24T00:44:16.660Z,9.98
2023-03-24T00:46:46.636Z,9.97
2023-03-24T00:49:13.463Z,9.96
2023-03-24T00:51:41.903Z,9.92
2023-03-24T00:54:11.617Z,9.90
2023-03-24T00:56:39.645Z,9.87
2023-03-24T00:59:06.844Z,9.83
2023-03-24T01:01:34.175Z,9.79
2023-03-24T01:04:00.911Z,9.76
2023-03-24T01:06:27.476Z,9.74
2023-03-24T01:08:54.560Z,9.70
2023-03-24T01:11:23.146Z,9.69
2023-03-24T01:13:52.052Z,9.67
2023-03-24T01:16:18.895Z,9.65
2023-03-24T01:18:46.024Z,9.63
2023-03-24T01:21:12.796Z,9.60
2023-03-24T01:23:39.889Z,9.57
2023-03-24T01:26:08.413Z,9.55
2023-03-24T01:28:36.148Z,9.54
2023-03-24T01:31:02.686Z,9.52
2023-03-24T01:33:29.188Z,9.51
2023-03-24T01:35:55.781Z,9.50
2023-03-24T01:38:22.334Z,9.49
2023-03-24T01:40:48.939Z,9.47
2023-03-24T01:43:25.183Z,9.46
2023-03-24T01:45:56.042Z,9.45
2023-03-24T01:48:28.477Z,9.43
2023-03-24T01:51:06.393Z,9.40
2023-03-24T01:53:36.520Z,9.39
2023-03-24T01:56:05.596Z,9.37
2023-03-24T01:58:33.304Z,9.36
2023-03-24T02:00:59.902Z,9.34
2023-03-24T02:03:27.549Z,9.33
2023-03-24T02:05:56.043Z,9.34
2023-03-24T02:08:46.128Z,9.35
2023-03-24T02:11:12.759Z,9.35
2023-03-24T02:13:39.332Z,9.34
2023-03-24T02:16:11.993Z,9.33
2023-03-24T02:18:38.495Z,9.31
2023-03-24T02:21:10.989Z,9.31
2023-03-24T02:24:11.305Z,9.30
2023-03-24T02:27:05.223Z,9.29
2023-03-24T02:30:04.113Z,9.28
2023-03-24T02:33:06.308Z,9.27
2023-03-24T02:36:10.356Z,9.26
2023-03-24T02:38:49.320Z,9.25
2023-03-24T02:41:18.421Z,9.25
2023-03-24T02:43:52.035Z,9.25
2023-03-24T02:46:33.131Z,9.24
2023-03-24T02:49:21.497Z,9.22
2023-03-24T02:52:24.194Z,9.20
2023-03-24T02:55:08.177Z,9.21
2023-03-24T02:57:42.594Z,9.22
2023-03-24T03:00:50.729Z,9.24
2023-03-24T03:03:27.242Z,9.25
2023-03-24T03:06:07.111Z,9.26
2023-03-24T03:08:35.903Z,9.27
2023-03-24T03:11:06.975Z,9.27
2023-03-24T03:13:51.964Z,9.26
2023-03-24T03:16:27.936Z,9.25
2023-03-24T03:18:58.435Z,9.24
2023-03-24T03:21:27.128Z,9.23
2023-03-24T03:24:01.971Z,9.22
2023-03-24T03:26:31.546Z,9.22
2023-03-24T03:29:05.628Z,9.21
2023-03-24T03:31:40.919Z,9.20
2023-03-24T03:34:16.982Z,9.17
2023-03-24T03:37:05.217Z,9.15
2023-03-24T03:39:36.866Z,9.15
2023-03-24T03:42:05.075Z,9.15
2023-03-24T03:44:31.793Z,9.14
2023-03-24T03:46:58.920Z,9.14
2023-03-24T03:49:25.520Z,9.13
2023-03-24T03:51:52.737Z,9.12
2023-03-24T03:54:20.591Z,9.10
2023-03-24T03:56:47.634Z,9.09
2023-03-24T03:59:29.592Z,9.08
2023-03-24T04:01:56.922Z,9.05
2023-03-24T04:05:05.777Z,9.03
2023-03-24T04:07:48.139Z,9.02
2023-03-24T04:10:44.819Z,8.99
2023-03-24T04:13:19.756Z,8.97
2023-03-24T04:15:49.830Z,8.95
2023-03-24T04:18:34.352Z,8.94
2023-03-24T04:21:40.549Z,8.91
2023-03-24T04:24:40.323Z,8.88
2023-03-24T04:27:06.859Z,8.86
2023-03-24T04:29:36.104Z,8.85
2023-03-24T04:32:24.310Z,8.85
2023-03-24T04:34:57.098Z,8.86
2023-03-24T04:37:29.108Z,8.88
2023-03-24T04:39:57.637Z,8.89
2023-03-24T04:42:31.186Z,8.90
2023-03-24T04:44:58.111Z,8.92
2023-03-24T04:47:29.619Z,8.92
2023-03-24T04:50:08.067Z,8.94
2023-03-24T04:52:34.909Z,8.93
2023-03-24T04:55:02.977Z,8.93
2023-03-24T04:57:29.527Z,8.92
2023-03-24T04:59:56.041Z,8.92
2023-03-24T05:02:22.594Z,8.93
2023-03-24T05:04:49.663Z,8.92
2023-03-24T05:07:16.270Z,8.93
2023-03-24T05:09:42.834Z,8.91
2023-03-24T05:12:09.358Z,8.91
2023-03-24T05:14:35.950Z,8.90
2023-03-24T05:17:02.460Z,8.89
2023-03-24T05:19:28.998Z,8.89
2023-03-24T05:21:55.495Z,8.89
2023-03-24T05:24:21.975Z,8.89
2023-03-24T05:26:48.475Z,8.91
2023-03-24T05:29:15.039Z,8.94
2023-03-24T05:31:41.545Z,8.97
2023-03-24T05:34:08.061Z,9.01
2023-03-24T05:36:34.560Z,9.05
2023-03-24T05:39:01.074Z,9.10
2023-03-24T05:41:27.619Z,9.15
2023-03-24T05:43:54.170Z,9.20
2023-03-24T05:46:21.046Z,9.27
2023-03-24T05:48:47.573Z,9.32
2023-03-24T05:51:14.184Z,9.38
2023-03-24T05:53:40.720Z,9.44
2023-03-24T05:56:07.892Z,9.50
2023-03-24T05:58:34.446Z,9.57
2023-03-24T06:01:06.922Z,9.63
2023-03-24T06:03:33.518Z,9.69
2023-03-24T06:06:00.236Z,9.77
2023-03-24T06:08:26.736Z,9.86
2023-03-24T06:10:53.246Z,9.96
2023-03-24T06:13:19.749Z,10.07
2023-03-24T06:15:46.425Z,10.19
2023-03-24T06:18:13.072Z,10.32
2023-03-24T06:20:39.549Z,10.44
2023-03-24T06:23:06.069Z,10.56
2023-03-24T06:25:32.606Z,10.69
2023-03-24T06:27:59.115Z,10.80
2023-03-24T06:30:25.627Z,10.91
2023-03-24T06:32:52.173Z,11.00
2023-03-24T06:35:18.849Z,11.09
2023-03-24T06:37:45.358Z,11.18
2023-03-24T06:40:13.213Z,11.26
2023-03-24T06:42:40.008Z,11.35
2023-03-24T06:45:07.547Z,11.46
2023-03-24T06:47:34.186Z,11.57
2023-03-24T06:50:00.761Z,11.69
2023-03-24T06:52:27.393Z,11.80
2023-03-24T06:54:53.917Z,11.89
2023-03-24T06:57:20.397Z,11.98
2023-03-24T06:59:46.986Z,12.10
2023-03-24T07:02:13.990Z,12.21
2023-03-24T07:04:40.451Z,12.33
2023-03-24T07:09:39.525Z,12.55
2023-03-24T07:12:06.957Z,12.65
2023-03-24T07:14:33.550Z,12.75
2023-03-24T07:17:00.072Z,12.83
2023-03-24T07:19:26.683Z,12.91
2023-03-24T07:21:53.198Z,13.02
2023-03-24T07:24:19.857Z,13.14
2023-03-24T07:26:46.467Z,13.28
2023-03-24T07:29:13.069Z,13.41
2023-03-24T07:31:39.656Z,13.52
2023-03-24T07:34:07.169Z,13.64
2023-03-24T07:36:34.328Z,13.78
2023-03-24T07:39:00.844Z,13.91
2023-03-24T07:41:27.533Z,14.06
2023-03-24T07:43:54.054Z,14.21
2023-03-24T07:46:20.636Z,14.35
2023-03-24T07:48:47.236Z,14.47
2023-03-24T07:51:13.864Z,14.60
2023-03-24T07:53:40.360Z,14.72
2023-03-24T07:56:07.177Z,14.83
2023-03-24T07:58:33.689Z,14.94
2023-03-24T08:01:00.179Z,15.04
2023-03-24T08:03:26.769Z,15.17
2023-03-24T08:05:54.946Z,15.27
2023-03-24T08:08:21.651Z,15.39
2023-03-24T08:10:48.494Z,15.53
2023-03-24T08:13:15.145Z,15.65
2023-03-24T08:15:41.665Z,15.74
2023-03-24T08:18:08.348Z,15.81
2023-03-24T08:20:34.963Z,15.88
2023-03-24T08:23:02.596Z,15.99
2023-03-24T08:25:29.180Z,16.10
2023-03-24T08:27:55.776Z,16.21
2023-03-24T08:30:25.366Z,16.33
2023-03-24T08:32:57.991Z,16.45
2023-03-24T08:35:35.339Z,16.59
2023-03-24T08:38:06.047Z,16.71
2023-03-24T08:40:34.364Z,16.82
2023-03-24T08:43:03.707Z,16.95
2023-03-24T08:45:32.239Z,17.07
2023-03-24T08:48:01.403Z,17.14
2023-03-24T08:50:32.764Z,17.22
2023-03-24T08:52:59.301Z,17.33
2023-03-24T08:55:26.304Z,17.45
2023-03-24T08:57:53.147Z,17.52
2023-03-24T09:00:21.425Z,17.60
2023-03-24T09:02:53.807Z,17.74
2023-03-24T09:05:36.529Z,17.89
2023-03-24T09:08:10.784Z,17.98
2023-03-24T09:10:37.388Z,18.02
2023-03-24T09:13:04.072Z,18.08
2023-03-24T09:15:30.855Z,18.14
2023-03-24T09:17:57.547Z,18.22
2023-03-24T09:20:24.342Z,18.34
2023-03-24T09:22:51.106Z,18.45
2023-03-24T09:25:20.721Z,18.58
2023-03-24T09:27:47.640Z,18.76
2023-03-24T09:30:17.076Z,18.93
2023-03-24T09:32:45.127Z,19.12
2023-03-24T09:35:12.035Z,19.29
2023-03-24T09:37:39.834Z,19.44
2023-03-24T09:40:07.087Z,19.64
2023-03-24T09:42:38.776Z,19.92
2023-03-24T09:45:14.630Z,20.25
2023-03-24T09:47:48.446Z,20.50
2023-03-24T09:50:24.777Z,20.75
2023-03-24T09:52:56.482Z,21.04
2023-03-24T09:55:26.774Z,21.49
2023-03-24T09:58:06.374Z,22.02
2023-03-24T10:00:33.629Z,22.47
2023-03-24T10:03:22.185Z,22.84
2023-03-24T10:06:07.945Z,23.25
2023-03-24T10:08:40.671Z,23.61
2023-03-24T10:11:38.494Z,23.93
2023-03-24T10:14:18.125Z,24.39
2023-03-24T10:17:00.296Z,24.77
2023-03-24T10:19:46.157Z,25.15
2023-03-24T10:22:29.205Z,25.79
2023-03-24T10:25:08.240Z,26.63
2023-03-24T10:27:45.111Z,27.44
2023-03-24T10:30:29.120Z,28.29
2023-03-24T10:32:55.994Z,28.94
2023-03-24T10:35:29.890Z,29.63
2023-03-24T10:38:00.407Z,30.15
2023-03-24T10:40:33.323Z,30.27
2023-03-24T10:43:06.288Z,30.39
2023-03-24T10:45:38.461Z,30.22
2023-03-24T10:48:05.598Z,29.94
2023-03-24T10:50:33.397Z,29.88
2023-03-24T10:52:59.914Z,30.38
2023-03-24T10:55:36.217Z,31.33
2023-03-24T10:58:03.151Z,33.02
2023-03-24T11:00:32.344Z,34.74
2023-03-24T11:03:02.183Z,36.21
2023-03-24T11:05:32.837Z,37.03
2023-03-24T11:08:17.842Z,36.99
2023-03-24T11:10:44.920Z,36.29
2023-03-24T11:13:20.786Z,35.53
2023-03-24T11:16:15.278Z,34.86
2023-03-24T11:19:06.831Z,34.17
2023-03-24T11:21:36.808Z,33.76
2023-03-24T11:24:11.275Z,34.52
2023-03-24T11:26:40.282Z,35.41
2023-03-24T11:29:14.519Z,35.98
2023-03-24T11:31:42.191Z,36.49
2023-03-24T11:34:20.005Z,36.56
2023-03-24T11:36:56.298Z,36.39
2023-03-24T11:39:27.947Z,35.85
2023-03-24T11:42:27.108Z,35.21
2023-03-24T11:44:54.132Z,34.44
2023-03-24T11:47:34.318Z,33.63
2023-03-24T11:50:13.935Z,32.95
2023-03-24T11:52:53.263Z,32.11
2023-03-24T11:56:18.479Z,31.10
2023-03-24T11:58:56.370Z,30.00
2023-03-24T12:01:22.800Z,29.14
2023-03-24T12:03:52.219Z,28.54
2023-03-24T12:06:27.794Z,27.94
2023-03-24T12:09:32.646Z,27.40
2023-03-24T12:12:12.717Z,26.88
2023-03-24T12:14:55.813Z,26.44
2023-03-24T12:17:37.457Z,26.11
2023-03-24T12:20:17.212Z,25.90
2023-03-24T12:22:58.010Z,25.68
2023-03-24T12:25:44.737Z,25.41
2023-03-24T12:28:11.240Z,25.15
2023-03-24T12:30:49.921Z,24.95
2023-03-24T12:33:35.750Z,24.80
2023-03-24T12:36:23.550Z,24.73
2023-03-24T12:38:59.694Z,24.66
2023-03-24T12:41:47.642Z,24.63
2023-03-24T12:44:14.196Z,24.55
2023-03-24T12:49:26.892Z,24.37
2023-03-24T12:52:12.081Z,24.29
2023-03-24T12:54:52.219Z,24.23
2023-03-24T12:57:24.200Z,24.19
2023-03-24T13:00:00.383Z,24.18
2023-03-24T13:02:35.370Z,24.18
2023-03-24T13:05:24.378Z,24.13
2023-03-24T13:07:55.517Z,24.15
2023-03-24T13:10:26.463Z,24.15
2023-03-24T13:13:22.583Z,24.10
2023-03-24T13:16:01.547Z,24.04
2023-03-24T13:18:54.667Z,23.98
2023-03-24T13:21:24.426Z,23.97
2023-03-24T13:24:00.844Z,23.98
2023-03-24T13:26:40.756Z,24.00
2023-03-24T13:29:07.729Z,24.06
2023-03-24T13:31:42.292Z,24.08
2023-03-24T13:34:24.760Z,24.05
2023-03-24T13:36:59.605Z,23.97
2023-03-24T13:39:28.702Z,23.87
2023-03-24T13:41:58.300Z,23.78
2023-03-24T13:44:54.016Z,23.78
2023-03-24T13:47:20.787Z,23.85
2023-03-24T13:50:07.864Z,23.88
2023-03-24T13:52:45.759Z,23.81
2023-03-24T13:55:27.132Z,23.73
2023-03-24T13:58:20.042Z,23.76
2023-03-24T14:01:05.327Z,24.06
2023-03-24T14:03:46.984Z,24.47
2023-03-24T14:06:18.098Z,24.83
2023-03-24T14:09:05.647Z,25.07
2023-03-24T14:11:32.129Z,25.20
2023-03-24T14:14:16.583Z,25.35
2023-03-24T14:17:14.897Z,25.54
2023-03-24T14:19:43.738Z,25.61
2023-03-24T14:22:10.225Z,25.62
2023-03-24T14:24:37.590Z,25.81
2023-03-24T14:27:30.540Z,26.10
2023-03-24T14:30:00.974Z,26.44
2023-03-24T14:32:27.733Z,26.79
2023-03-24T14:34:59.564Z,27.14
2023-03-24T14:37:27.425Z,27.65
2023-03-24T14:39:57.478Z,27.65
2023-03-24T14:42:28.430Z,27.56
2023-03-24T14:44:57.266Z,27.33
2023-03-24T14:47:30.598Z,26.95
2023-03-24T14:49:59.766Z,26.42
2023-03-24T14:52:33.874Z,25.88
2023-03-24T14:55:07.410Z,25.46
2023-03-24T14:57:42.344Z,25.08
2023-03-24T15:00:22.728Z,24.73
2023-03-24T15:02:58.514Z,24.38
2023-03-24T15:05:29.432Z,24.12
2023-03-24T15:08:17.316Z,23.91
2023-03-24T15:11:06.020Z,23.73
2023-03-24T15:13:37.686Z,23.57
2023-03-24T15:16:16.332Z,23.44
2023-03-24T15:19:10.733Z,23.35
2023-03-24T15:21:46.674Z,23.30
2023-03-24T15:24:22.409Z,23.22
2023-03-24T15:27:13.564Z,23.16
2023-03-24T15:29:42.636Z,23.12
2023-03-24T15:32:19.076Z,23.08
2023-03-24T15:34:54.654Z,22.98
2023-03-24T15:37:31.052Z,22.91
2023-03-24T15:40:12.556Z,22.84
2023-03-24T15:42:44.785Z,22.73
2023-03-24T15:45:22.541Z,22.63
2023-03-24T15:47:51.856Z,22.63
2023-03-24T15:50:29.438Z,22.66
2023-03-24T15:53:06.862Z,22.77
2023-03-24T15:55:36.188Z,22.83
2023-03-24T15:58:24.393Z,22.86
2023-03-24T16:00:58.005Z,22.82
2023-03-24T16:03:24.962Z,22.70
2023-03-24T16:05:53.630Z,22.57
2023-03-24T16:08:34.701Z,22.43
2023-03-24T16:11:08.359Z,22.27
2023-03-24T16:13:35.054Z,22.11
2023-03-24T16:16:07.204Z,21.94
2023-03-24T16:18:36.622Z,21.79
2023-03-24T16:21:12.428Z,21.64
2023-03-24T16:23:38.985Z,21.51
2023-03-24T16:26:13.056Z,21.40
2023-03-24T16:28:39.601Z,21.31
2023-03-24T16:31:06.388Z,21.24
2023-03-24T16:33:33.408Z,21.17
2023-03-24T16:36:00.701Z,21.10
2023-03-24T16:38:28.655Z,21.02
2023-03-24T16:40:56.744Z,20.94
2023-03-24T16:43:23.516Z,20.85
2023-03-24T16:45:51.374Z,20.76
2023-03-24T16:48:18.251Z,20.66
2023-03-24T16:50:52.195Z,20.57
2023-03-24T16:53:19.653Z,20.49
2023-03-24T16:55:46.877Z,20.41
2023-03-24T16:58:16.153Z,20.33
2023-03-24T17:00:43.368Z,20.26
2023-03-24T17:03:10.537Z,20.20
2023-03-24T17:05:48.815Z,20.14
2023-03-24T17:08:16.252Z,20.06
2023-03-24T17:10:43.899Z,19.98
2023-03-24T17:13:18.071Z,19.91
2023-03-24T17:15:44.804Z,19.85
2023-03-24T17:18:11.402Z,19.79
2023-03-24T17:20:37.894Z,19.69
2023-03-24T17:23:04.603Z,19.58
2023-03-24T17:25:31.123Z,19.48
2023-03-24T17:27:59.163Z,19.38
2023-03-24T17:30:28.213Z,19.31
2023-03-24T17:32:54.818Z,19.26
2023-03-24T17:35:23.229Z,19.21
2023-03-24T17:37:50.144Z,19.17
2023-03-24T17:40:19.313Z,19.14
2023-03-24T17:42:46.830Z,19.10
2023-03-24T17:45:16.428Z,19.04
2023-03-24T17:47:43.461Z,18.97
2023-03-24T17:50:10.630Z,18.89
2023-03-24T17:52:39.196Z,18.81
2023-03-24T17:55:07.021Z,18.70
2023-03-24T17:57:34.335Z,18.60
2023-03-24T18:00:00.915Z,18.51
2023-03-24T18:02:27.844Z,18.44
2023-03-24T18:04:54.497Z,18.35
2023-03-24T18:07:21.325Z,18.26
2023-03-24T18:09:47.871Z,18.17
2023-03-24T18:12:14.454Z,18.08
2023-03-24T18:14:41.007Z,17.99
2023-03-24T18:17:07.587Z,17.90
2023-03-24T18:19:34.262Z,17.81
2023-03-24T18:22:00.724Z,17.71
2023-03-24T18:24:27.275Z,17.61
2023-03-24T18:26:53.893Z,17.52
2023-03-24T18:29:20.646Z,17.41
2023-03-24T18:31:47.225Z,17.31
2023-03-24T18:34:13.818Z,17.22
2023-03-24T18:36:40.431Z,17.12
2023-03-24T18:39:09.417Z,17.04
2023-03-24T18:41:36.739Z,16.95
2023-03-24T18:44:06.198Z,16.87
2023-03-24T18:46:33.405Z,16.78
2023-03-24T18:49:00.128Z,16.70
2023-03-24T18:51:27.402Z,16.64
2023-03-24T18:53:53.920Z,16.57
2023-03-24T18:56:21.425Z,16.51
2023-03-24T18:58:51.119Z,16.42
2023-03-24T19:01:20.128Z,16.34
2023-03-24T19:03:48.303Z,16.30
2023-03-24T19:06:15.747Z,16.26
2023-03-24T19:08:45.021Z,16.23
2023-03-24T19:11:13.831Z,16.20
2023-03-24T19:13:40.657Z,16.19
2023-03-24T19:16:13.978Z,16.17
2023-03-24T19:18:40.608Z,16.16
2023-03-24T19:21:07.877Z,16.15
2023-03-24T19:23:35.263Z,16.14
2023-03-24T19:26:02.493Z,16.13
2023-03-24T19:28:31.563Z,16.11
2023-03-24T19:30:59.815Z,16.09
2023-03-24T19:33:27.391Z,16.08
2023-03-24T19:35:54.309Z,16.04
2023-03-24T19:38:22.183Z,16.02
2023-03-24T19:40:48.744Z,16.00
2023-03-24T19:43:15.386Z,16.00
2023-03-24T19:45:42.224Z,15.98
2023-03-24T19:48:09.920Z,15.95
2023-03-24T19:50:36.539Z,15.95
2023-03-24T19:53:03.353Z,15.97
2023-03-24T19:55:29.882Z,16.00
2023-03-24T19:57:56.403Z,16.02
2023-03-24T20:00:22.991Z,16.06
2023-03-24T20:02:49.555Z,16.09
2023-03-24T20:05:16.818Z,16.11
2023-03-24T20:07:43.317Z,16.13
2023-03-24T20:10:10.411Z,16.14
2023-03-24T20:12:37.267Z,16.14
2023-03-24T20:15:04.328Z,16.14
2023-03-24T20:17:30.964Z,16.13
2023-03-24T20:19:57.497Z,16.11
2023-03-24T20:22:24.009Z,16.08
2023-03-24T20:24:50.479Z,16.05
2023-03-24T20:27:17.027Z,16.03
2023-03-24T20:29:43.672Z,16.02
2023-03-24T20:32:10.241Z,16.01
2023-03-24T20:34:37.980Z,16.00
2023-03-24T20:37:06.028Z,16.00
2023-03-24T20:39:32.588Z,16.01
2023-03-24T20:41:59.326Z,16.00
2023-03-24T20:44:26.157Z,16.01
2023-03-24T20:46:52.992Z,15.99
2023-03-24T20:49:19.671Z,15.98
2023-03-24T20:51:46.227Z,15.98
2023-03-24T20:54:12.835Z,15.98
2023-03-24T20:56:39.510Z,15.99
2023-03-24T20:59:06.066Z,15.96
2023-03-24T21:01:34.189Z,15.96
2023-03-24T21:04:08.384Z,15.92
2023-03-24T21:06:37.363Z,15.87
2023-03-24T21:09:04.497Z,15.83
2023-03-24T21:11:32.371Z,15.80
2023-03-24T21:13:59.442Z,15.78
2023-03-24T21:16:27.042Z,15.79
2023-03-24T21:18:54.612Z,15.79
2023-03-24T21:21:21.473Z,15.82
2023-03-24T21:23:48.352Z,15.85
2023-03-24T21:26:16.908Z,15.89
2023-03-24T21:28:44.297Z,15.94
2023-03-24T21:31:12.318Z,15.98
2023-03-24T21:33:38.928Z,16.02
2023-03-24T21:36:07.559Z,16.04
2023-03-24T21:38:34.161Z,16.05
2023-03-24T21:41:01.816Z,16.08
2023-03-24T21:43:28.790Z,16.09
2023-03-24T21:45:56.582Z,16.11
2023-03-24T21:48:23.860Z,16.12
2023-03-24T21:50:51.267Z,16.13
2023-03-24T21:53:18.572Z,16.14
2023-03-24T21:55:51.764Z,16.14
2023-03-24T21:58:18.753Z,16.15
2023-03-24T22:00:46.915Z,16.17
2023-03-24T22:03:14.193Z,16.18
2023-03-24T22:05:41.289Z,16.18
2023-03-24T22:08:09.336Z,16.16
2023-03-24T22:10:37.030Z,16.15
2023-03-24T22:13:04.542Z,16.13
2023-03-24T22:15:33.061Z,16.10
2023-03-24T22:18:00.844Z,16.07
2023-03-24T22:20:27.548Z,16.04
2023-03-24T22:22:54.368Z,16.03
2023-03-24T22:25:20.895Z,16.02
2023-03-24T22:27:47.395Z,16.00
2023-03-24T22:30:15.059Z,15.99
2023-03-24T22:32:41.649Z,15.97
2023-03-24T22:35:09.368Z,15.97
2023-03-24T22:37:35.908Z,15.96
2023-03-24T22:40:02.589Z,15.96
2023-03-24T22:42:29.088Z,15.94
2023-03-24T22:44:55.598Z,15.93
2023-03-24T22:47:22.139Z,15.91
2023-03-24T22:49:48.644Z,15.88
2023-03-24T22:52:15.162Z,15.86
2023-03-24T22:54:41.627Z,15.84
2023-03-24T22:57:08.203Z,15.84
2023-03-24T22:59:34.705Z,15.83
2023-03-24T23:02:09.169Z,15.82
2023-03-24T23:04:37.086Z,15.82
2023-03-24T23:07:03.979Z,15.83
2023-03-24T23:09:30.454Z,15.84
2023-03-24T23:11:57.041Z,15.86
2023-03-24T23:14:23.539Z,15.87
2023-03-24T23:16:50.090Z,15.89
2023-03-24T23:19:16.583Z,15.90
2023-03-24T23:21:43.089Z,15.90
2023-03-24T23:24:09.541Z,15.89
2023-03-24T23:26:37.371Z,15.89
2023-03-24T23:29:04.042Z,15.89
2023-03-24T23:31:30.648Z,15.89
2023-03-24T23:33:58.310Z,15.90
2023-03-24T23:36:25.640Z,15.90
2023-03-24T23:38:54.056Z,15.90
2023-03-24T23:41:21.161Z,15.90
2023-03-24T23:43:49.546Z,15.89
2023-03-24T23:46:17.141Z,15.88
2023-03-24T23:48:43.782Z,15.88
2023-03-24T23:51:10.307Z,15.87
2023-03-24T23:53:36.965Z,15.86
2023-03-24T23:56:06.550Z,15.85
2023-03-24T23:58:38.272Z,15.84
